Time;durP1;ratioP1;P1;durP2;ratioP2;P2;SDS_P1;SDS_P2;PMS_P1;PMS_P2;Temp;Humidity;BMP_temperature;BMP_pressure;BME280_temperature;BME280_humidity;BME280_pressure;Samples;Min_cycle;Max_cycle;Signal;HPM_P1;HPM_P2
2021/11/07 00:01:08;;;;;;;13.05;7.00;;;;;;;13.81;48.81;101402.78;4950343;28;99015;-82
2021/11/07 00:03:41;;;;;;;9.93;6.03;;;;;;;13.74;49.49;101398.63;4953966;28;100744;-80
2021/11/07 00:06:12;;;;;;;10.30;6.32;;;;;;;13.96;48.71;101407.50;4953447;28;97371;-79
2021/11/07 00:08:47;;;;;;;9.95;6.22;;;;;;;13.61;49.22;101389.41;4953583;28;97474;-79
2021/11/07 00:11:23;;;;;;;10.25;6.07;;;;;;;13.61;49.21;101372.59;4952189;28;100408;-79
2021/11/07 00:13:51;;;;;;;;;;;;;;;13.51;49.54;101372.09;4953049;28;98848;-79
2021/11/07 00:16:24;;;;;;;9.90;6.38;;;;;;;13.45;50.07;101372.31;4951648;28;97104;-80
2021/11/07 00:19:03;;;;;;;12.88;6.63;;;;;;;13.68;49.44;101364.34;4955366;28;96742;-78
2021/11/07 00:21:31;;;;;;;11.00;5.82;;;;;;;13.76;49.11;101356.09;4952216;28;98971;-79
2021/11/07 00:24:03;;;;;;;9.38;6.38;;;;;;;13.71;48.99;101364.25;4954581;28;99150;-79
2021/11/07 00:26:33;;;;;;;11.43;6.00;;;;;;;13.58;49.49;101347.03;4957153;28;97691;-79
2021/11/07 00:29:05;;;;;;;10.38;6.10;;;;;;;13.62;49.47;101338.03;4958827;28;96685;-79
2021/11/07 00:31:40;;;;;;;12.77;6.18;;;;;;;13.58;49.54;101339.09;4962322;28;97742;-80
2021/11/07 00:34:38;;;;;;;10.55;6.63;;;;;;;13.49;49.44;101334.97;4959252;28;97817;-80
2021/11/07 00:37:05;;;;;;;10.48;5.65;;;;;;;13.05;50.80;101331.31;4955622;28;96765;-81
2021/11/07 00:39:41;;;;;;;13.07;6.05;;;;;;;13.50;50.21;101318.13;4956647;28;96822;-80
2021/11/07 00:42:12;;;;;;;8.77;5.95;;;;;;;13.61;49.62;101314.19;4955794;28;101452;-80
2021/11/07 00:44:47;;;;;;;8.35;5.78;;;;;;;13.43;50.42;101313.09;4955940;28;99479;-80
2021/11/07 00:47:26;;;;;;;9.45;5.13;;;;;;;13.53;49.78;101299.41;4955675;28;97336;-79
2021/11/07 00:49:57;;;;;;;8.32;6.50;;;;;;;13.42;49.75;101290.13;4955517;28;97217;-79
2021/11/07 00:52:27;;;;;;;9.48;5.95;;;;;;;13.12;51.06;101279.78;4955066;28;98343;-80
2021/11/07 00:55:01;;;;;;;10.05;5.88;;;;;;;12.92;51.35;101266.34;4955079;28;100600;-81
2021/11/07 00:57:38;;;;;;;10.82;6.07;;;;;;;13.09;50.90;101263.94;4955431;28;96681;-81
2021/11/07 01:00:12;;;;;;;;;;;;;;;13.08;51.11;101245.41;4954961;28;96859;-81
2021/11/07 01:02:40;;;;;;;9.48;6.28;;;;;;;13.00;50.92;101248.34;4959859;28;98845;-81
2021/11/07 01:05:14;;;;;;;9.23;6.00;;;;;;;13.08;50.98;101256.88;4959518;28;98031;-81
2021/11/07 01:07:41;;;;;;;12.43;6.45;;;;;;;13.14;50.98;101259.34;4955130;28;96872;-80
2021/11/07 01:10:09;;;;;;;12.60;6.85;;;;;;;13.09;50.02;101255.09;4955127;28;97268;-79
2021/11/07 01:12:36;;;;;;;9.48;6.38;;;;;;;13.07;50.95;101248.97;4954351;28;99284;-80
2021/11/07 01:15:03;;;;;;;10.27;6.78;;;;;;;12.83;51.57;101245.47;4953890;28;99414;-79
2021/11/07 01:17:30;;;;;;;11.13;6.68;;;;;;;13.06;50.98;101248.09;4954030;28;96734;-79
2021/11/07 01:19:57;;;;;;;10.35;7.05;;;;;;;13.15;51.08;101245.16;4954412;28;96742;-79
2021/11/07 01:22:32;;;;;;;10.32;6.65;;;;;;;13.22;50.78;101234.28;4954673;28;101105;-79
2021/11/07 01:25:01;;;;;;;12.23;7.57;;;;;;;13.03;51.00;101226.16;4955064;28;99270;-79
2021/11/07 01:27:32;;;;;;;13.90;8.30;;;;;;;12.84;51.79;101222.47;4965960;28;96681;-79
2021/11/07 01:30:01;;;;;;;16.10;8.18;;;;;;;12.90;51.37;101219.56;4969544;28;97172;-80
2021/11/07 01:32:34;;;;;;;12.82;8.18;;;;;;;12.71;51.80;101208.78;4968065;28;99130;-79
2021/11/07 01:35:04;;;;;;;13.00;9.13;;;;;;;12.84;51.70;101202.09;4969166;28;97688;-80
2021/11/07 01:37:35;;;;;;;12.65;8.02;;;;;;;12.64;52.33;101186.06;4970799;28;96659;-80
2021/11/07 01:40:08;;;;;;;14.43;9.05;;;;;;;12.73;52.21;101185.75;4972879;28;96076;-80
2021/11/07 01:42:37;;;;;;;16.27;7.88;;;;;;;12.71;51.54;101176.97;4975884;28;98601;-79
2021/11/07 01:45:13;;;;;;;17.67;8.43;;;;;;;12.89;51.52;101170.09;4974689;28;98078;-80
2021/11/07 01:47:45;;;;;;;12.68;7.97;;;;;;;12.85;51.75;101157.88;4974710;28;96556;-80
2021/11/07 01:50:11;;;;;;;15.80;7.68;;;;;;;13.16;50.92;101154.00;4963030;28;96703;-79
2021/11/07 01:52:40;;;;;;;11.23;7.82;;;;;;;12.98;50.41;101144.09;4958858;28;98971;-79
2021/11/07 01:55:08;;;;;;;14.43;7.97;;;;;;;13.22;50.91;101141.41;4952616;28;99328;-80
2021/11/07 01:57:37;;;;;;;13.40;8.30;;;;;;;12.94;51.17;101141.59;4953798;28;97141;-79
2021/11/07 02:00:10;;;;;;;13.65;8.38;;;;;;;13.03;51.02;101138.59;4952812;28;97205;-79
2021/11/07 02:02:37;;;;;;;13.65;7.88;;;;;;;13.23;50.78;101143.16;4953556;28;99247;-79
2021/11/07 02:05:06;;;;;;;9.70;7.10;;;;;;;13.23;51.09;101140.50;4952057;28;98965;-80
2021/11/07 02:07:32;;;;;;;12.70;7.95;;;;;;;13.31;50.30;101125.13;4972220;28;96778;-79
2021/11/07 02:09:59;;;;;;;15.82;8.25;;;;;;;13.31;50.18;101112.72;4959808;28;96971;-79
2021/11/07 02:12:25;;;;;;;13.85;7.40;;;;;;;13.29;50.46;101113.72;4954044;28;98911;-79
2021/11/07 02:14:53;;;;;;;10.90;7.88;;;;;;;13.18;50.92;101108.00;4953179;28;99121;-79
2021/11/07 02:17:20;;;;;;;13.60;7.95;;;;;;;13.35;50.40;101105.50;4958391;28;98633;-79
2021/11/07 02:19:47;;;;;;;10.93;7.03;;;;;;;13.29;50.34;101096.00;4954006;28;96785;-79
2021/11/07 02:22:15;;;;;;;11.65;8.02;;;;;;;13.26;50.64;101103.25;4953509;28;98845;-79
2021/11/07 02:24:41;;;;;;;14.32;7.85;;;;;;;13.24;50.74;101095.34;4953296;28;98886;-80
2021/11/07 02:27:09;;;;;;;10.73;6.78;;;;;;;13.32;50.59;101085.28;4952237;28;97344;-80
2021/11/07 02:29:37;;;;;;;10.60;7.57;;;;;;;13.37;50.33;101079.75;4953194;28;96826;-79
2021/11/07 02:32:06;;;;;;;10.45;6.80;;;;;;;13.64;49.36;101081.25;4952110;28;98984;-80
2021/11/07 02:34:33;;;;;;;8.68;6.22;;;;;;;13.41;49.75;101063.63;4952078;28;99042;-79
2021/11/07 02:37:01;;;;;;;14.15;7.00;;;;;;;13.25;50.63;101064.34;4953089;28;96796;-80
2021/11/07 02:39:28;;;;;;;11.40;6.80;;;;;;;13.36;50.82;101059.44;4948812;28;98091;-79
2021/11/07 02:41:55;;;;;;;11.80;7.10;;;;;;;13.42;50.42;101051.22;4950634;28;99147;-80
2021/11/07 02:44:31;;;;;;;12.93;7.00;;;;;;;13.51;50.30;101048.19;4949771;28;100084;-80
2021/11/07 02:46:58;;;;;;;10.02;7.15;;;;;;;13.41;50.44;101031.78;4950703;28;97133;-79
2021/11/07 02:49:25;;;;;;;11.27;6.40;;;;;;;13.56;49.75;101028.47;4953662;28;96777;-79
2021/11/07 02:51:52;;;;;;;10.15;6.85;;;;;;;13.29;50.17;101020.81;4972610;28;98632;-79
2021/11/07 02:54:19;;;;;;;10.02;6.82;;;;;;;13.22;50.86;101022.00;4957628;28;97853;-79
2021/11/07 02:56:48;;;;;;;11.05;6.65;;;;;;;13.34;50.72;101032.97;4953836;28;96765;-80
2021/11/07 02:59:20;;;;;;;10.43;6.63;;;;;;;13.11;51.55;101028.59;4953192;28;98806;-79
2021/11/07 03:01:48;;;;;;;13.02;6.78;;;;;;;13.20;51.14;101021.19;4940028;28;99270;-79
2021/11/07 03:04:14;;;;;;;12.30;6.95;;;;;;;13.22;51.18;101019.34;4950996;28;99172;-79
2021/11/07 03:06:43;;;;;;;9.73;6.35;;;;;;;13.53;50.48;101017.97;4952417;28;97275;-79
2021/11/07 03:09:14;;;;;;;12.85;7.47;;;;;;;13.54;50.19;100997.59;4952814;28;97274;-78
2021/11/07 03:11:41;;;;;;;9.45;6.18;;;;;;;13.62;49.90;100982.22;4952551;28;98862;-78
2021/11/07 03:14:12;;;;;;;8.35;5.95;;;;;;;13.56;50.01;100971.84;4950830;28;99100;-80
2021/11/07 03:16:39;;;;;;;13.15;6.60;;;;;;;13.44;50.62;100972.41;4952908;28;97344;-79
2021/11/07 03:19:06;;;;;;;10.65;5.95;;;;;;;13.32;50.66;100963.19;4951646;28;96833;-78
2021/11/07 03:21:32;;;;;;;9.75;6.43;;;;;;;13.09;51.12;100953.50;4951386;28;99348;-79
2021/11/07 03:23:59;;;;;;;9.13;5.75;;;;;;;13.44;50.49;100948.50;4951480;28;99043;-78
2021/11/07 03:26:27;;;;;;;9.88;5.95;;;;;;;13.27;50.67;100938.63;4952833;28;96733;-80
2021/11/07 03:28:57;;;;;;;8.40;5.32;;;;;;;13.31;50.61;100939.38;4959244;28;98849;-80
2021/11/07 03:31:31;;;;;;;10.15;5.82;;;;;;;13.11;51.67;100927.78;4952658;28;98302;-80
2021/11/07 03:34:00;;;;;;;9.25;4.82;;;;;;;13.53;50.70;100934.81;4951102;28;99109;-79
2021/11/07 03:36:32;;;;;;;12.15;5.38;;;;;;;13.27;50.92;100935.09;4953451;28;96762;-79
2021/11/07 03:38:59;;;;;;;8.10;5.63;;;;;;;13.39;50.27;100951.34;4952897;28;97417;-79
2021/11/07 03:41:26;;;;;;;8.35;5.72;;;;;;;13.53;50.54;100948.94;4955489;28;98954;-79
2021/11/07 03:43:52;;;;;;;12.45;6.15;;;;;;;13.58;50.09;100951.41;4955468;28;98857;-79
2021/11/07 03:46:19;;;;;;;8.57;5.13;;;;;;;13.56;50.03;100929.38;4966156;28;97193;-80
2021/11/07 03:48:47;;;;;;;9.95;5.45;;;;;;;13.59;50.22;100926.56;4954283;28;96850;-79
2021/11/07 03:51:15;;;;;;;10.68;5.75;;;;;;;13.50;50.89;100925.22;4952865;28;99520;-79
2021/11/07 03:53:42;;;;;;;9.82;5.35;;;;;;;13.67;51.23;100911.16;4955450;28;98337;-79
2021/11/07 03:56:08;;;;;;;8.77;5.55;;;;;;;13.63;51.37;100904.28;4955665;28;97612;-79
2021/11/07 03:58:35;;;;;;;9.00;5.38;;;;;;;13.81;51.06;100895.47;4956943;28;97656;-79
2021/11/07 04:01:01;;;;;;;8.05;5.05;;;;;;;13.33;52.40;100892.38;4955180;28;98919;-79
2021/11/07 04:03:28;;;;;;;8.68;5.47;;;;;;;13.34;53.15;100888.78;4957636;28;99145;-79
2021/11/07 04:05:55;;;;;;;8.93;5.40;;;;;;;13.58;52.55;100893.00;4956855;28;97511;-79
2021/11/07 04:08:22;;;;;;;9.65;5.43;;;;;;;13.56;52.79;100878.94;4954079;28;96792;-80
2021/11/07 04:10:49;;;;;;;8.07;5.00;;;;;;;13.36;53.01;100868.34;4963486;28;98931;-79
2021/11/07 04:13:16;;;;;;;7.97;5.40;;;;;;;13.34;53.22;100879.03;4967120;28;97999;-79
2021/11/07 04:15:43;;;;;;;9.55;5.45;;;;;;;13.34;53.54;100879.03;4966641;28;97184;-79
2021/11/07 04:18:09;;;;;;;9.93;5.22;;;;;;;13.32;53.63;100864.13;4964121;28;96648;-79
2021/11/07 04:20:36;;;;;;;10.90;5.88;;;;;;;13.41;53.39;100855.72;4964706;28;97939;-79
2021/11/07 04:23:04;;;;;;;7.97;5.15;;;;;;;13.45;53.38;100847.59;4966433;28;98957;-78
2021/11/07 04:25:31;;;;;;;6.82;4.82;;;;;;;13.28;53.38;100852.78;4967181;28;96775;-78
2021/11/07 04:27:58;;;;;;;9.05;5.25;;;;;;;13.36;53.39;100852.44;4962078;28;96986;-79
2021/11/07 04:30:24;;;;;;;6.93;4.30;;;;;;;13.06;53.64;100844.03;4961926;28;98711;-79
2021/11/07 04:32:50;;;;;;;7.47;4.45;;;;;;;13.13;53.75;100846.34;4964188;28;98931;-80
2021/11/07 04:35:17;;;;;;;8.50;4.88;;;;;;;13.26;53.15;100848.47;4960594;28;96863;-79
2021/11/07 04:37:44;;;;;;;11.10;5.25;;;;;;;13.53;53.15;100845.41;4939329;28;97274;-79
2021/11/07 04:40:15;;;;;;;8.05;4.85;;;;;;;13.34;53.04;100843.66;4957222;28;98977;-79
2021/11/07 04:42:42;;;;;;;6.07;4.72;;;;;;;13.45;52.71;100839.63;4973804;28;99291;-79
2021/11/07 04:45:09;;;;;;;6.03;4.70;;;;;;;13.60;52.61;100838.03;4955948;28;96822;-78
2021/11/07 04:47:36;;;;;;;5.85;3.95;;;;;;;13.38;53.86;100850.56;4957717;28;96661;-78
2021/11/07 04:50:04;;;;;;;7.75;4.70;;;;;;;13.47;53.36;100835.06;4955923;28;99526;-78
2021/11/07 04:52:30;;;;;;;6.47;4.60;;;;;;;12.99;54.28;100818.69;4955680;28;98916;-80
2021/11/07 04:54:57;;;;;;;8.75;4.72;;;;;;;13.13;53.29;100832.22;4955936;28;96775;-79
2021/11/07 04:57:25;;;;;;;8.10;5.05;;;;;;;12.92;55.01;100815.47;4957229;28;97252;-79
2021/11/07 04:59:51;;;;;;;6.97;4.50;;;;;;;13.15;53.88;100810.00;4956170;28;99563;-79
2021/11/07 05:02:17;;;;;;;5.82;4.47;;;;;;;13.34;53.74;100809.16;4962402;28;99048;-79
2021/11/07 05:04:44;;;;;;;12.23;4.35;;;;;;;13.41;53.11;100800.84;4954268;28;97100;-79
2021/11/07 05:07:11;;;;;;;13.32;4.85;;;;;;;13.56;52.72;100799.28;4956267;28;97303;-80
2021/11/07 05:09:37;;;;;;;10.52;4.75;;;;;;;13.37;53.16;100801.06;4952906;28;97636;-80
2021/11/07 05:12:05;;;;;;;5.85;4.40;;;;;;;13.16;52.96;100785.19;4954423;28;99946;-80
2021/11/07 05:14:32;;;;;;;7.93;4.32;;;;;;;13.61;52.22;100778.69;4954659;28;96841;-79
2021/11/07 05:16:59;;;;;;;6.43;4.25;;;;;;;13.32;52.14;100779.19;4961096;28;98474;-79
2021/11/07 05:19:25;;;;;;;5.95;4.10;;;;;;;13.34;52.67;100782.63;4957114;28;97004;-80
2021/11/07 05:21:52;;;;;;;9.38;4.00;;;;;;;13.41;52.81;100784.94;4967291;28;98220;-80
2021/11/07 05:24:18;;;;;;;7.25;4.22;;;;;;;13.26;52.48;100779.50;4953933;28;96936;-80
2021/11/07 05:26:45;;;;;;;4.95;3.63;;;;;;;13.29;52.56;100782.84;4955595;28;96704;-79
2021/11/07 05:29:11;;;;;;;9.02;4.07;;;;;;;13.31;52.21;100782.78;4956180;28;100526;-79
2021/11/07 05:31:39;;;;;;;6.50;3.92;;;;;;;13.64;51.68;100783.88;4948235;28;97735;-80
2021/11/07 05:34:06;;;;;;;5.05;3.80;;;;;;;13.43;52.03;100774.25;4960632;28;96746;-79
2021/11/07 05:36:33;;;;;;;9.68;4.18;;;;;;;13.52;51.32;100755.25;4974981;28;97947;-80
2021/11/07 05:39:00;;;;;;;10.88;4.20;;;;;;;13.36;51.66;100747.13;4974544;28;98558;-80
2021/11/07 05:41:26;;;;;;;6.78;3.80;;;;;;;13.42;51.35;100753.94;4975860;28;99292;-79
2021/11/07 05:43:52;;;;;;;7.28;4.18;;;;;;;13.53;51.57;100744.53;4985878;28;97465;-79
2021/11/07 05:46:19;;;;;;;8.98;4.55;;;;;;;13.58;51.85;100741.69;4976117;28;96075;-78
2021/11/07 05:48:47;;;;;;;11.43;3.80;;;;;;;13.56;51.67;100757.69;4977235;28;97096;-80
2021/11/07 05:51:13;;;;;;;5.18;4.20;;;;;;;13.71;51.79;100764.06;4959797;28;96891;-78
2021/11/07 05:53:40;;;;;;;5.80;3.65;;;;;;;13.85;51.08;100753.59;4976550;28;96607;-79
2021/11/07 05:56:07;;;;;;;4.72;3.38;;;;;;;13.42;52.39;100753.94;4971401;28;96815;-80
2021/11/07 05:58:34;;;;;;;5.15;3.30;;;;;;;13.84;50.88;100756.34;4969062;28;99421;-79
2021/11/07 06:01:00;;;;;;;7.75;3.80;;;;;;;13.70;51.50;100737.56;4961559;28;97719;-78
2021/11/07 06:03:26;;;;;;;11.93;4.30;;;;;;;13.64;51.93;100753.78;4956973;28;97088;-78
2021/11/07 06:05:54;;;;;;;9.07;3.45;;;;;;;13.61;52.14;100749.47;4955895;28;97181;-80
2021/11/07 06:08:21;;;;;;;5.20;3.15;;;;;;;13.83;51.78;100742.22;4954482;28;98958;-79
2021/11/07 06:10:48;;;;;;;5.68;3.95;;;;;;;13.94;51.28;100744.31;4953966;28;99750;-79
2021/11/07 06:13:15;;;;;;;4.82;3.63;;;;;;;14.08;51.20;100741.84;4952889;28;96800;-80
2021/11/07 06:15:42;;;;;;;9.82;3.85;;;;;;;14.10;50.58;100734.69;4952902;28;97999;-81
2021/11/07 06:18:08;;;;;;;7.18;4.10;;;;;;;13.88;51.35;100728.69;4936156;28;98793;-79
2021/11/07 06:20:35;;;;;;;6.13;3.90;;;;;;;13.80;50.77;100717.56;4954720;28;98878;-81
2021/11/07 06:23:04;;;;;;;8.90;3.70;;;;;;;13.87;51.33;100733.16;4953290;28;97173;-80
2021/11/07 06:25:32;;;;;;;27.30;5.25;;;;;;;13.81;51.85;100727.28;4953086;28;96853;-79
2021/11/07 06:27:59;;;;;;;5.53;3.58;;;;;;;13.65;52.05;100729.84;4952610;28;99057;-80
2021/11/07 06:30:26;;;;;;;5.85;3.33;;;;;;;13.82;51.73;100732.50;4959981;28;98801;-79
2021/11/07 06:32:52;;;;;;;4.60;3.88;;;;;;;13.58;52.55;100736.38;4954127;28;97356;-80
2021/11/07 06:35:19;;;;;;;8.07;4.10;;;;;;;13.83;52.42;100736.91;4952692;28;97557;-79
2021/11/07 06:37:45;;;;;;;5.10;3.45;;;;;;;13.79;52.79;100732.66;4952391;28;98904;-79
2021/11/07 06:40:14;;;;;;;8.00;4.45;;;;;;;13.62;52.96;100732.63;4950583;28;98971;-79
2021/11/07 06:42:41;;;;;;;5.10;3.60;;;;;;;13.51;53.62;100729.63;4952776;28;96789;-79
2021/11/07 06:45:08;;;;;;;11.85;4.20;;;;;;;13.70;53.98;100740.22;4950992;28;97174;-78
2021/11/07 06:47:34;;;;;;;7.88;4.13;;;;;;;13.64;54.15;100730.75;4951484;28;99375;-80
2021/11/07 06:50:01;;;;;;;6.88;4.40;;;;;;;13.86;54.20;100728.75;4949419;28;98907;-78
2021/11/07 06:52:28;;;;;;;8.48;4.40;;;;;;;13.53;54.60;100727.75;4950394;28;96751;-79
2021/11/07 06:54:55;;;;;;;8.02;4.85;;;;;;;13.82;54.39;100727.19;4951522;28;96790;-78
2021/11/07 06:57:23;;;;;;;6.70;4.47;;;;;;;14.00;54.18;100732.53;4962485;28;99245;-79
2021/11/07 06:59:49;;;;;;;8.98;4.82;;;;;;;13.95;53.37;100725.66;4954387;28;99180;-79
2021/11/07 07:02:16;;;;;;;9.27;3.75;;;;;;;13.92;54.16;100728.44;4956942;28;96790;-80
2021/11/07 07:04:43;;;;;;;6.30;4.18;;;;;;;14.10;53.47;100709.91;4950561;28;96810;-79
2021/11/07 07:07:09;;;;;;;9.48;4.60;;;;;;;14.12;53.12;100718.63;4961416;28;99277;-79
2021/11/07 07:09:43;;;;;;;7.57;4.78;;;;;;;14.15;52.94;100716.69;4952395;28;98227;-81
2021/11/07 07:12:14;;;;;;;5.57;3.72;;;;;;;14.07;53.03;100718.88;4954788;28;96894;-80
2021/11/07 07:14:49;;;;;;;6.63;4.20;;;;;;;13.93;53.16;100714.25;4951020;28;96874;-80
2021/11/07 07:17:25;;;;;;;6.05;3.67;;;;;;;13.93;53.46;100719.56;4956891;28;98931;-80
2021/11/07 07:20:03;;;;;;;6.40;4.20;;;;;;;14.10;52.59;100717.88;4953044;28;97176;-79
2021/11/07 07:22:52;;;;;;;6.72;4.07;;;;;;;14.17;52.27;100727.25;4953432;28;96650;-79
2021/11/07 07:28:20;;;;;;;8.00;4.30;;;;;;;14.27;52.04;100724.03;4951691;28;97608;-80
2021/11/07 07:31:10;;;;;;;7.45;4.18;;;;;;;14.24;52.43;100724.19;4960842;28;99388;-80
2021/11/07 07:33:41;;;;;;;7.93;4.00;;;;;;;14.16;53.08;100728.19;4958172;28;97052;-81
2021/11/07 07:36:08;;;;;;;6.55;4.13;;;;;;;14.19;52.69;100722.69;4957519;28;97524;-78
2021/11/07 07:38:34;;;;;;;8.43;4.55;;;;;;;14.32;52.42;100722.00;4956130;28;99317;-79
2021/11/07 07:41:01;;;;;;;6.95;4.13;;;;;;;14.24;52.82;100704.75;4954373;28;99182;-78
2021/11/07 07:43:30;;;;;;;6.20;4.22;;;;;;;13.98;53.92;100718.50;4955086;28;96952;-78
2021/11/07 07:46:02;;;;;;;8.25;4.38;;;;;;;13.91;54.90;100710.78;4956317;28;96867;-79
2021/11/07 07:48:28;;;;;;;6.30;3.90;;;;;;;13.96;54.09;100708.78;4954812;28;99593;-79
2021/11/07 07:50:55;;;;;;;6.05;3.53;;;;;;;13.91;54.68;100700.16;4955672;28;100682;-80
2021/11/07 07:53:24;;;;;;;6.25;4.13;;;;;;;13.93;54.98;100708.06;4955491;28;96676;-79
2021/11/07 07:55:51;;;;;;;5.88;3.85;;;;;;;14.15;54.90;100711.38;4955632;28;96915;-80
2021/11/07 07:58:17;;;;;;;4.97;3.30;;;;;;;14.24;54.62;100700.25;4955541;28;102481;-79
2021/11/07 08:00:44;;;;;;;6.88;3.97;;;;;;;14.22;54.32;100696.84;4954029;28;98941;-80
2021/11/07 08:03:11;;;;;;;7.10;3.70;;;;;;;14.42;53.73;100698.50;4954203;28;96866;-80
2021/11/07 08:05:38;;;;;;;6.10;3.80;;;;;;;14.58;53.64;100695.88;4955147;28;97178;-80
2021/11/07 08:08:05;;;;;;;6.72;3.95;;;;;;;14.25;54.58;100703.78;4952290;28;97848;-80
2021/11/07 08:10:31;;;;;;;5.00;3.88;;;;;;;14.33;54.01;100706.91;4954205;28;99254;-79
2021/11/07 08:12:58;;;;;;;5.47;3.72;;;;;;;14.56;53.82;100693.34;4953491;28;96974;-80
2021/11/07 08:15:24;;;;;;;4.63;3.42;;;;;;;14.52;53.58;100690.91;4955497;28;97354;-80
2021/11/07 08:17:51;;;;;;;5.90;3.65;;;;;;;14.34;53.83;100695.34;4953715;28;101242;-80
2021/11/07 08:20:19;;;;;;;5.10;3.50;;;;;;;13.91;55.04;100700.16;4955867;28;97750;-81
2021/11/07 08:22:47;;;;;;;6.25;3.80;;;;;;;14.26;54.52;100690.41;4953783;28;97080;-79
2021/11/07 08:25:15;;;;;;;5.65;3.70;;;;;;;14.55;53.59;100691.59;4954634;28;97316;-81
2021/11/07 08:27:45;;;;;;;5.53;4.00;;;;;;;14.71;53.20;100684.53;4953846;28;99119;-79
2021/11/07 08:30:14;;;;;;;8.73;3.75;;;;;;;14.92;52.14;100681.66;4953308;28;97917;-80
2021/11/07 08:32:41;;;;;;;8.90;3.80;;;;;;;14.90;52.85;100684.38;4955349;28;96840;-81
2021/11/07 08:35:09;;;;;;;7.22;3.50;;;;;;;14.97;52.09;100690.22;4949665;28;98153;-78
2021/11/07 08:37:43;;;;;;;6.22;3.03;;;;;;;14.74;52.52;100689.69;4948695;28;98204;-80
2021/11/07 08:40:12;;;;;;;6.47;3.38;;;;;;;14.67;53.09;100679.47;4948681;28;99063;-80
2021/11/07 08:42:43;;;;;;;14.00;5.03;;;;;;;14.61;52.96;100674.47;4948279;28;96867;-80
2021/11/07 09:01:54;;;;;;;6.07;3.13;;;;;;;14.96;51.97;100665.44;4948888;28;97562;-79
2021/11/07 09:04:24;;;;;;;4.50;2.50;;;;;;;15.02;51.35;100672.25;4945887;28;97694;-80
2021/11/07 09:07:12;;;;;;;4.85;2.97;;;;;;;15.05;51.67;100667.59;4948615;28;97563;-80
2021/11/07 09:09:41;;;;;;;4.72;2.72;;;;;;;15.13;51.38;100656.53;4932585;28;99686;-81
2021/11/07 09:12:09;;;;;;;3.63;2.55;;;;;;;14.93;51.77;100654.09;4949456;28;101510;-80
2021/11/07 09:14:37;;;;;;;3.75;2.60;;;;;;;15.38;50.65;100640.88;4948208;28;98587;-80
2021/11/07 09:17:05;;;;;;;3.33;2.38;;;;;;;15.06;50.78;100636.53;4951091;28;97057;-81
2021/11/07 09:19:36;;;;;;;4.80;2.30;;;;;;;15.28;50.90;100633.53;4950814;28;98396;-80
2021/11/07 09:22:08;;;;;;;6.25;2.95;;;;;;;15.23;51.03;100623.09;4954081;28;99305;-80
2021/11/07 09:24:38;;;;;;;3.67;2.10;;;;;;;15.12;51.58;100626.38;4954812;28;96878;-81
2021/11/07 09:27:14;;;;;;;2.70;1.95;;;;;;;15.26;51.20;100625.63;4950504;28;96949;-81
2021/11/07 09:29:52;;;;;;;5.38;2.05;;;;;;;15.25;50.70;100631.88;4955523;28;98956;-84
2021/11/07 09:35:18;;;;;;;4.55;1.90;;;;;;;15.08;51.55;100626.66;4956790;28;97650;-80
2021/11/07 09:37:49;;;;;;;6.15;1.67;;;;;;;15.22;51.15;100636.53;4961878;28;96774;-81
2021/11/07 09:40:18;;;;;;;5.43;1.98;;;;;;;15.19;51.15;100626.03;4965576;28;99045;-81
2021/11/07 09:43:09;;;;;;;5.90;1.88;;;;;;;14.64;52.92;100626.41;4962386;28;101184;-81
2021/11/07 09:45:44;;;;;;;3.05;1.77;;;;;;;14.67;52.70;100619.16;4947671;28;96808;-83
2021/11/07 11:51:31;;;;;;;8.47;2.10;;;;;;;14.16;54.63;100604.16;5980138;22;1258324;-81
2021/11/07 11:54:28;;;;;;;6.90;1.70;;;;;;;14.05;55.74;100605.63;6155721;22;97640;-82
2021/11/07 11:57:12;;;;;;;3.97;1.63;;;;;;;14.26;55.34;100596.53;6160403;22;97161;-84
2021/11/07 11:59:45;;;;;;;3.00;1.00;;;;;;;14.43;55.60;100604.53;6158800;22;97260;-84
2021/11/07 12:02:17;;;;;;;7.35;1.08;;;;;;;14.39;55.60;100605.59;6168030;22;98976;-83
2021/11/07 12:05:08;;;;;;;5.00;1.08;;;;;;;14.47;55.51;100605.22;6165728;22;98639;-84
2021/11/07 12:07:55;;;;;;;4.78;1.92;;;;;;;14.41;55.89;100605.53;6174820;22;96449;-82
2021/11/07 12:10:32;;;;;;;4.20;1.30;;;;;;;14.35;56.37;100604.91;6174308;22;96796;-85
2021/11/07 12:13:01;;;;;;;4.18;1.48;;;;;;;14.26;56.74;100593.88;6170681;22;98922;-83
2021/11/07 12:15:48;;;;;;;5.53;1.63;;;;;;;14.61;56.15;100589.38;6145940;22;97463;-83
2021/11/07 12:18:14;;;;;;;8.93;1.83;;;;;;;14.86;54.93;100583.56;6171895;22;97398;-81
2021/11/07 12:20:44;;;;;;;5.75;1.80;;;;;;;14.96;55.24;100580.31;6174070;22;97096;-84
2021/11/07 12:23:17;;;;;;;9.70;2.10;;;;;;;15.12;54.71;100581.16;6171497;22;97809;-84
2021/11/07 12:25:44;;;;;;;6.15;1.52;;;;;;;15.06;54.64;100580.63;6166634;22;99129;-83
2021/11/07 12:28:11;;;;;;;6.38;1.88;;;;;;;15.04;54.54;100579.84;6160469;22;97072;-83
2021/11/07 12:30:39;;;;;;;8.13;1.88;;;;;;;14.97;54.55;100576.69;6162558;22;97161;-85
2021/11/07 12:33:10;;;;;;;5.07;1.63;;;;;;;15.00;55.53;100578.31;6135565;22;98849;-83
2021/11/07 12:35:40;;;;;;;6.95;2.03;;;;;;;15.21;54.73;100581.56;6171474;22;97374;-83
2021/11/07 12:41:14;;;;;;;9.07;2.15;;;;;;;15.38;54.22;100592.97;6168014;22;96604;-83
2021/11/07 12:43:43;;;;;;;7.53;2.13;;;;;;;15.09;54.18;100586.66;6165428;22;98099;-82
2021/11/07 12:46:17;;;;;;;7.57;1.90;;;;;;;15.11;54.50;100587.41;6162406;22;98868;-82
2021/11/07 12:48:46;;;;;;;8.00;2.67;;;;;;;15.24;54.26;100587.56;6159684;22;97390;-83
2021/11/07 12:51:14;;;;;;;10.35;2.05;;;;;;;15.50;53.75;100588.72;6156815;22;97002;-83
2021/11/07 12:54:09;;;;;;;8.40;2.42;;;;;;;15.67;53.26;100582.47;6126907;23;98185;-83
2021/11/07 12:56:39;;;;;;;7.50;1.98;;;;;;;15.59;52.95;100571.41;6130847;23;101289;-83
2021/11/07 12:59:09;;;;;;;8.35;1.67;;;;;;;16.44;51.56;100576.84;6132250;23;96769;-82
2021/11/07 13:01:59;;;;;;;7.22;1.80;;;;;;;15.99;51.07;100570.72;6131179;23;97112;-83
2021/11/07 13:04:27;;;;;;;8.43;2.13;;;;;;;16.13;51.08;100562.75;6128311;23;99397;-83
2021/11/07 13:06:55;;;;;;;10.88;2.10;;;;;;;16.42;50.00;100563.59;6128022;23;97670;-83
2021/11/07 13:09:26;;;;;;;7.57;2.10;;;;;;;15.65;51.42;100568.38;6131007;23;96784;-83
2021/11/07 13:11:57;;;;;;;8.68;1.80;;;;;;;15.64;51.78;100566.66;6129560;23;96684;-86
2021/11/07 13:14:35;;;;;;;10.93;1.80;;;;;;;15.54;51.30;100579.66;6128612;23;100214;-83
2021/11/07 13:17:32;;;;;;;8.88;2.00;;;;;;;15.61;51.52;100569.50;6127946;23;99685;-84
2021/11/07 13:23:26;;;;;;;9.18;2.03;;;;;;;15.21;51.08;100576.25;6017537;23;96858;-85
2021/11/07 13:26:02;;;;;;;9.70;1.80;;;;;;;15.47;50.35;100571.13;6128666;23;98030;-86
2021/11/07 13:28:35;;;;;;;7.47;1.83;;;;;;;15.81;49.79;100580.69;6129662;23;100054;-87
2021/11/07 13:31:08;;;;;;;7.28;1.77;;;;;;;15.42;49.98;100585.69;6136992;23;97114;-85
2021/11/07 13:33:38;;;;;;;12.63;1.90;;;;;;;14.62;51.93;100578.66;6145152;23;96749;-86
2021/11/07 13:36:06;;;;;;;10.20;2.20;;;;;;;15.25;51.06;100578.66;6147910;23;99532;-86
2021/11/07 13:41:30;;;;;;;14.23;2.97;;;;;;;15.46;50.01;100580.06;6140095;23;96528;-86
2021/11/07 13:43:59;;;;;;;8.93;1.63;;;;;;;15.23;50.50;100579.69;6135758;23;96782;-86
2021/11/07 13:46:26;;;;;;;10.82;1.98;;;;;;;15.13;50.02;100587.34;6137181;23;99276;-86
2021/11/07 13:51:52;;;;;;;8.85;1.90;;;;;;;14.61;52.10;100610.66;6138886;22;97108;-87
2021/11/07 13:54:21;;;;;;;13.32;2.13;;;;;;;14.68;51.67;100598.72;6169735;22;97259;-86
2021/11/07 13:57:21;;;;;;;12.32;1.90;;;;;;;14.69;51.88;100603.97;6168714;22;100213;-86
2021/11/07 13:59:50;;;;;;;13.80;2.00;;;;;;;14.46;53.08;100590.19;6171138;22;99876;-87
2021/11/07 14:02:19;;;;;;;12.30;2.25;;;;;;;14.29;53.85;100599.91;6143117;22;100127;-85
2021/11/07 14:04:48;;;;;;;12.02;2.60;;;;;;;14.39;54.23;100608.28;6136719;23;96568;-85
2021/11/07 14:07:21;;;;;;;12.77;2.30;;;;;;;14.16;54.24;100605.94;6133851;23;99335;-86
2021/11/07 14:09:59;;;;;;;14.60;2.55;;;;;;;14.25;53.97;100610.75;6132433;23;101068;-86
2021/11/07 14:12:35;;;;;;;13.43;2.35;;;;;;;14.33;54.40;100601.44;6134037;23;97275;-85